Terminal Aerodrome Forecast
Issued by NWS

Home | Current Version | Previous Version | Text Only | Print | Product List | Glossary On
Versions: 1 2 3 4 5 6 7 8 9 10 11 12 13
000
FTUS46 KLOX 271700
TAFWJF
TAF
KWJF 271738Z 2718/2818 VRB05KT P6SM SKC
     FM272000 09008KT P6SM SKC
     FM272100 15009KT P6SM SKC
     FM280300 27006KT P6SM SKC=

USA.gov is the U.S. government's official web portal to all federal, state and local government web resources and services.